Time;durP1;ratioP1;P1;durP2;ratioP2;P2;SDS_P1;SDS_P2;PMS_P1;PMS_P2;Temp;Humidity;BMP_temperature;BMP_pressure;BME280_temperature;BME280_humidity;BME280_pressure;Samples;Min_cycle;Max_cycle;Signal;HPM_P1;HPM_P2
2021/11/13 00:02:03;;;;;;;89.25;39.00;;;;;;;9.80;95.86;100775.66;5038445;28;20029;-40
2021/11/13 00:04:29;;;;;;;96.97;40.17;;;;;;;9.80;95.82;100768.41;5034765;28;20492;-40
2021/11/13 00:06:54;;;;;;;94.57;40.78;;;;;;;9.82;96.10;100760.16;5034659;28;20112;-40
2021/11/13 00:09:19;;;;;;;109.28;41.85;;;;;;;9.82;96.47;100769.09;5034691;28;20025;-42
2021/11/13 00:11:45;;;;;;;99.05;39.45;;;;;;;9.80;96.35;100765.72;5033444;28;20040;-44
2021/11/13 00:14:16;;;;;;;91.32;39.17;;;;;;;9.80;96.83;100757.66;5034750;28;20049;-43
2021/11/13 00:16:42;;;;;;;106.57;42.15;;;;;;;9.79;96.73;100760.53;5034765;28;20021;-43
2021/11/13 00:19:07;;;;;;;106.22;41.33;;;;;;;9.81;96.64;100743.19;5034323;28;20383;-42
2021/11/13 00:21:32;;;;;;;98.63;39.30;;;;;;;9.80;96.90;100744.22;5050162;28;20025;-42
2021/11/13 00:23:58;;;;;;;94.80;38.97;;;;;;;9.83;96.69;100743.03;5054483;28;20025;-42
2021/11/13 00:26:23;;;;;;;97.93;40.13;;;;;;;9.83;97.04;100741.19;5054389;28;20041;-41
2021/11/13 00:28:49;;;;;;;108.15;40.33;;;;;;;9.81;96.82;100732.44;5054192;28;20033;-41
2021/11/13 00:31:14;;;;;;;94.05;38.88;;;;;;;9.81;97.09;100740.50;5052849;28;20032;-42
2021/11/13 00:33:39;;;;;;;95.65;39.58;;;;;;;9.81;97.45;100731.63;5054296;28;20027;-45
2021/11/13 00:36:05;;;;;;;95.68;36.53;;;;;;;9.81;97.42;100727.06;5054118;28;20039;-42
2021/11/13 00:38:30;;;;;;;85.70;36.38;;;;;;;9.81;97.42;100719.00;5054107;28;20021;-42
2021/11/13 00:40:56;;;;;;;87.13;36.17;;;;;;;9.81;97.64;100716.31;5052877;28;20060;-41
2021/11/13 00:43:21;;;;;;;90.43;36.60;;;;;;;9.82;97.47;100717.16;5054157;28;20047;-41
2021/11/13 00:45:47;;;;;;;81.25;36.30;;;;;;;9.82;97.61;100718.00;5053875;28;20132;-42
2021/11/13 00:48:12;;;;;;;82.70;34.85;;;;;;;9.84;97.74;100720.50;5053682;28;20028;-42
2021/11/13 00:50:40;;;;;;;83.15;34.30;;;;;;;9.86;98.01;100716.63;5053702;28;20056;-42
2021/11/13 00:53:05;;;;;;;78.32;33.20;;;;;;;9.86;98.11;100719.31;5052419;28;20069;-42
2021/11/13 00:55:30;;;;;;;96.93;34.10;;;;;;;9.89;97.95;100724.31;5053744;28;20075;-42
2021/11/13 00:57:57;;;;;;;76.35;31.98;;;;;;;9.91;98.23;100726.00;5053729;28;20032;-41
2021/11/13 01:00:22;;;;;;;71.05;32.45;;;;;;;9.92;98.20;100720.44;5053644;28;20611;-42
2021/11/13 01:02:49;;;;;;;70.05;32.13;;;;;;;9.95;98.35;100709.31;5053727;28;20029;-42
2021/11/13 01:05:15;;;;;;;74.95;30.85;;;;;;;9.96;98.36;100707.50;5052455;28;20025;-42
2021/11/13 01:07:40;;;;;;;72.82;31.20;;;;;;;9.98;98.49;100721.56;5053433;28;20025;-42
2021/11/13 01:10:08;;;;;;;66.95;29.40;;;;;;;10.00;98.27;100714.16;5052211;28;20021;-42
2021/11/13 01:12:33;;;;;;;62.10;26.63;;;;;;;10.03;98.42;100705.72;5053563;28;20087;-41
2021/11/13 01:14:59;;;;;;;60.17;26.92;;;;;;;10.08;98.48;100711.38;5053259;28;20762;-41
2021/11/13 01:17:24;;;;;;;62.58;26.50;;;;;;;10.07;98.46;100707.03;5053334;28;20033;-41
2021/11/13 01:19:50;;;;;;;57.58;24.70;;;;;;;10.11;98.35;100697.59;5051521;28;20025;-42
2021/11/13 01:22:16;;;;;;;62.63;25.20;;;;;;;10.11;98.40;100695.75;5033368;28;20121;-42
2021/11/13 01:24:42;;;;;;;59.28;23.90;;;;;;;10.14;98.53;100699.94;5033486;28;20025;-42
2021/11/13 01:27:07;;;;;;;54.88;23.67;;;;;;;10.15;98.49;100704.28;5031812;28;20046;-42
2021/11/13 01:29:33;;;;;;;58.70;22.83;;;;;;;10.19;98.66;100700.22;5033256;28;20021;-43
2021/11/13 01:31:58;;;;;;;73.00;24.17;;;;;;;10.20;98.71;100701.88;5032492;28;20048;-42
2021/11/13 01:34:24;;;;;;;58.25;22.52;;;;;;;10.22;98.79;100699.00;5060390;28;20126;-41
2021/11/13 01:36:49;;;;;;;61.00;22.23;;;;;;;10.26;98.93;100701.13;5053370;28;20032;-42
2021/11/13 01:39:15;;;;;;;59.10;20.70;;;;;;;10.27;98.85;100699.31;5053249;28;20020;-41
2021/11/13 01:41:40;;;;;;;67.47;17.33;;;;;;;10.29;98.61;100694.59;5052978;28;20025;-40
2021/11/13 01:44:06;;;;;;;56.70;17.75;;;;;;;10.30;98.64;100689.03;5053670;28;20124;-40
2021/11/13 01:46:32;;;;;;;58.05;16.02;;;;;;;10.31;98.75;100689.84;5062785;28;20024;-40
2021/11/13 01:48:57;;;;;;;58.17;15.50;;;;;;;10.34;98.73;100694.88;5052786;28;20033;-40
2021/11/13 01:51:26;;;;;;;55.85;12.75;;;;;;;10.39;98.72;100697.00;5052748;28;20021;-41
2021/11/13 01:53:55;;;;;;;60.33;11.90;;;;;;;10.43;98.63;100688.41;5051719;28;20028;-40
2021/11/13 01:56:21;;;;;;;66.32;10.25;;;;;;;10.47;99.09;100694.22;5051580;28;20020;-40
2021/11/13 01:58:49;;;;;;;54.95;8.93;;;;;;;10.49;98.76;100693.03;5052703;28;20053;-40
2021/11/13 02:01:15;;;;;;;;;;;;;;;10.53;98.60;100693.47;5043010;28;20100;-40
2021/11/13 02:03:40;;;;;;;76.32;7.95;;;;;;;10.56;98.71;100687.75;5032644;28;20004;-40
2021/11/13 02:06:06;;;;;;;58.17;7.28;;;;;;;10.57;98.59;100689.41;5032553;28;20354;-40
2021/11/13 02:08:31;;;;;;;61.03;6.75;;;;;;;10.61;98.70;100688.03;5032513;28;20025;-41
2021/11/13 02:10:57;;;;;;;61.55;6.75;;;;;;;10.64;98.59;100681.44;5032930;28;20029;-40
2021/11/13 02:13:22;;;;;;;47.17;5.40;;;;;;;10.68;98.55;100683.56;5052540;28;20429;-40
2021/11/13 02:15:47;;;;;;;59.05;5.93;;;;;;;10.69;98.26;100681.69;5052431;28;20024;-40
2021/11/13 02:18:13;;;;;;;42.05;5.55;;;;;;;10.71;98.08;100679.66;5052362;28;20021;-40
2021/11/13 02:20:40;;;;;;;59.38;6.57;;;;;;;10.74;97.88;100685.53;5044169;28;20442;-40
2021/11/13 02:23:20;;;;;;;48.90;5.63;;;;;;;10.76;97.74;100683.44;5032475;28;20044;-40
2021/11/13 02:25:48;;;;;;;49.22;5.20;;;;;;;10.81;97.73;100674.81;5032242;28;20029;-40
2021/11/13 02:28:15;;;;;;;55.78;6.10;;;;;;;10.82;97.31;100675.66;5032567;28;20365;-40
2021/11/13 02:30:41;;;;;;;48.73;5.40;;;;;;;10.84;97.27;100679.00;5031130;28;20374;-40
2021/11/13 02:33:07;;;;;;;60.83;5.22;;;;;;;10.86;97.17;100674.28;5034431;28;20314;-40
2021/11/13 02:35:33;;;;;;;45.20;5.25;;;;;;;10.86;96.92;100669.72;5052265;28;20025;-41
2021/11/13 02:38:09;;;;;;;49.83;5.80;;;;;;;10.88;96.92;100675.75;5052264;28;20460;-40
2021/11/13 02:40:34;;;;;;;55.08;5.55;;;;;;;10.90;96.92;100678.25;5052230;28;20033;-40
2021/11/13 02:43:01;;;;;;;43.97;5.00;;;;;;;10.89;97.05;100681.97;5054051;28;20132;-40
2021/11/13 02:45:26;;;;;;;50.03;5.18;;;;;;;10.91;97.11;100674.53;5055442;28;20033;-41
2021/11/13 02:47:54;;;;;;;55.60;5.30;;;;;;;10.91;97.01;100674.53;5047837;28;20385;-41
2021/11/13 02:50:19;;;;;;;55.45;5.25;;;;;;;10.92;97.23;100666.25;5019689;28;20060;-42
2021/11/13 02:52:53;;;;;;;42.42;4.43;;;;;;;10.88;97.24;100664.97;5047274;28;20471;-44
2021/11/13 02:55:20;;;;;;;36.38;5.38;;;;;;;10.86;97.21;100668.88;5056130;28;20036;-43
2021/11/13 02:57:45;;;;;;;53.50;6.05;;;;;;;10.84;97.26;100668.22;5038074;28;20392;-43
2021/11/13 03:00:13;;;;;;;32.58;4.20;;;;;;;10.83;97.30;100666.56;5055737;28;20036;-42
2021/11/13 03:02:39;;;;;;;44.63;5.05;;;;;;;10.83;97.51;100671.97;5054757;28;20029;-42
2021/11/13 03:05:17;;;;;;;35.92;4.57;;;;;;;10.84;97.47;100670.94;5043292;28;20056;-41
2021/11/13 03:07:46;;;;;;;60.70;4.93;;;;;;;10.85;97.53;100669.88;5035575;28;20067;-42
2021/11/13 03:10:13;;;;;;;44.70;5.00;;;;;;;10.85;97.39;100680.66;5034530;28;20396;-40
2021/11/13 03:12:38;;;;;;;45.23;6.47;;;;;;;10.86;97.51;100687.72;5035779;28;20060;-40
2021/11/13 03:15:09;;;;;;;49.47;6.53;;;;;;;10.89;97.31;100679.28;5035006;28;20025;-41
2021/11/13 03:17:35;;;;;;;44.55;5.05;;;;;;;10.91;97.56;100679.94;5036292;28;20033;-42
2021/11/13 03:20:07;;;;;;;49.63;5.13;;;;;;;10.90;97.67;100673.72;5035542;28;20388;-43
2021/11/13 03:22:34;;;;;;;33.85;5.53;;;;;;;10.88;97.13;100675.75;5035566;28;20025;-45
2021/11/13 03:24:59;;;;;;;30.95;4.47;;;;;;;10.86;97.10;100675.09;5035282;28;20022;-44
2021/11/13 03:27:25;;;;;;;31.10;4.55;;;;;;;10.85;96.94;100681.53;5033798;28;20047;-42
2021/11/13 03:29:51;;;;;;;28.55;3.92;;;;;;;10.85;96.85;100691.44;5033873;28;20041;-41
2021/11/13 03:32:16;;;;;;;30.90;4.78;;;;;;;10.87;96.71;100689.38;5034076;28;20025;-42
2021/11/13 03:34:41;;;;;;;46.33;4.47;;;;;;;10.86;96.50;100679.66;5035306;28;20049;-41
2021/11/13 03:37:07;;;;;;;26.15;3.85;;;;;;;10.86;95.80;100687.72;5035466;28;20075;-42
2021/11/13 03:39:32;;;;;;;16.45;2.35;;;;;;;10.85;95.02;100683.34;5035461;28;20473;-40
2021/11/13 03:41:57;;;;;;;21.48;2.30;;;;;;;10.84;94.20;100684.38;5051431;28;20092;-41
2021/11/13 03:44:23;;;;;;;15.98;2.50;;;;;;;10.84;93.71;100689.78;5056215;28;20487;-40
2021/11/13 03:46:48;;;;;;;16.33;2.47;;;;;;;10.77;93.82;100685.16;5055483;28;20439;-40
2021/11/13 03:49:15;;;;;;;18.70;2.55;;;;;;;10.73;93.93;100689.22;5055160;28;20502;-40
2021/11/13 03:51:40;;;;;;;24.95;3.42;;;;;;;10.71;94.15;100679.66;5055144;28;20139;-40
2021/11/13 03:54:06;;;;;;;25.50;3.33;;;;;;;10.70;94.30;100688.78;5053913;28;20053;-40
2021/11/13 03:56:31;;;;;;;24.08;2.78;;;;;;;10.71;94.13;100696.63;5054787;28;20029;-41
2021/11/13 03:58:56;;;;;;;25.17;3.00;;;;;;;10.71;94.25;100690.44;5054770;28;20032;-40
2021/11/13 04:01:22;;;;;;;15.02;2.88;;;;;;;10.69;94.31;100696.00;5044139;28;20507;-40
2021/11/13 04:03:47;;;;;;;27.23;3.25;;;;;;;10.68;94.27;100697.00;5034802;28;20468;-40
2021/11/13 04:06:12;;;;;;;16.23;2.88;;;;;;;10.69;93.88;100698.72;5033412;28;20159;-38
2021/11/13 04:08:37;;;;;;;27.00;3.63;;;;;;;10.71;93.96;100698.50;5034613;28;20024;-39
2021/11/13 04:11:03;;;;;;;30.10;4.63;;;;;;;10.70;93.89;100688.78;5034649;28;20029;-41
2021/11/13 04:13:28;;;;;;;15.52;2.45;;;;;;;10.72;93.99;100703.72;5034608;28;20464;-40
2021/11/13 04:15:53;;;;;;;20.77;3.13;;;;;;;10.75;93.30;100697.94;5034530;28;20095;-40
2021/11/13 04:18:19;;;;;;;21.80;2.95;;;;;;;10.75;94.02;100708.72;5034749;28;20110;-40
2021/11/13 04:20:44;;;;;;;23.55;3.47;;;;;;;10.79;93.64;100714.56;5043750;28;20120;-39
2021/11/13 04:23:10;;;;;;;19.02;2.25;;;;;;;10.79;93.88;100713.72;5054300;28;20021;-40
2021/11/13 04:25:35;;;;;;;21.35;2.55;;;;;;;10.80;93.62;100707.34;5054136;28;20108;-39
2021/11/13 04:28:01;;;;;;;21.75;2.55;;;;;;;10.81;92.99;100714.38;5054476;28;20484;-41
2021/11/13 04:30:26;;;;;;;19.83;2.10;;;;;;;10.79;92.75;100717.25;5053667;28;20028;-40
2021/11/13 04:32:53;;;;;;;29.40;2.35;;;;;;;10.75;92.96;100721.34;5054316;28;20017;-40
2021/11/13 04:35:23;;;;;;;20.17;2.45;;;;;;;10.75;92.91;100730.25;5054293;28;20422;-40
2021/11/13 04:37:54;;;;;;;26.83;3.45;;;;;;;10.71;93.07;100730.81;5054025;28;20369;-40
2021/11/13 04:40:22;;;;;;;26.23;3.03;;;;;;;10.68;92.92;100732.00;5062804;28;20062;-40
2021/11/13 04:42:47;;;;;;;34.92;3.75;;;;;;;10.65;93.10;100732.38;5054178;28;20025;-40
2021/11/13 04:45:13;;;;;;;18.38;2.20;;;;;;;10.64;93.56;100736.09;5065179;28;20515;-40
2021/11/13 04:47:38;;;;;;;22.55;2.35;;;;;;;10.64;93.84;100733.41;5043070;28;20028;-41
2021/11/13 04:50:05;;;;;;;28.58;2.25;;;;;;;10.64;94.32;100736.09;5053439;28;20057;-40
2021/11/13 04:52:31;;;;;;;21.02;3.13;;;;;;;10.63;94.48;100739.78;5044603;28;20022;-40
2021/11/13 04:54:57;;;;;;;36.92;3.15;;;;;;;10.62;94.59;100740.84;5034357;28;20112;-40
2021/11/13 04:57:22;;;;;;;19.08;2.90;;;;;;;10.64;94.64;100738.78;5034607;28;20041;-40
2021/11/13 04:59:47;;;;;;;26.88;2.72;;;;;;;10.65;94.50;100737.75;5033125;28;20022;-40
2021/11/13 05:02:13;;;;;;;32.63;3.30;;;;;;;10.66;94.87;100747.50;5051586;28;20060;-40
2021/11/13 05:04:38;;;;;;;25.23;2.90;;;;;;;10.67;94.89;100743.81;5043266;28;20033;-40
2021/11/13 05:07:03;;;;;;;32.67;2.90;;;;;;;10.68;95.03;100750.84;5033095;28;20026;-40
2021/11/13 05:09:29;;;;;;;18.42;2.92;;;;;;;10.73;95.16;100755.69;5034122;28;20029;-42
2021/11/13 05:11:54;;;;;;;14.18;2.60;;;;;;;10.73;94.87;100753.81;5034526;28;20037;-44
2021/11/13 05:14:19;;;;;;;13.68;2.78;;;;;;;10.72;95.37;100749.47;5035162;28;20026;-40
2021/11/13 05:16:45;;;;;;;22.00;2.95;;;;;;;10.68;95.68;100756.22;5034571;28;20041;-44
2021/11/13 05:19:10;;;;;;;29.45;2.80;;;;;;;10.67;96.24;100751.06;5032552;28;20030;-43
2021/11/13 05:21:36;;;;;;;28.05;3.03;;;;;;;10.65;96.38;100756.59;5032410;28;20033;-45
2021/11/13 05:24:02;;;;;;;24.35;2.67;;;;;;;10.62;96.63;100756.97;5033753;28;20100;-46
2021/11/13 05:26:27;;;;;;;29.45;2.78;;;;;;;10.61;96.81;100763.38;5045053;28;20404;-45
2021/11/13 05:28:52;;;;;;;28.02;3.63;;;;;;;10.62;97.01;100762.34;5051668;28;20345;-43
2021/11/13 05:31:18;;;;;;;27.83;2.92;;;;;;;10.62;96.91;100767.75;5057835;28;20491;-42
2021/11/13 05:33:43;;;;;;;25.08;3.83;;;;;;;10.63;96.89;100761.31;5053446;28;20482;-41
2021/11/13 05:36:08;;;;;;;29.05;2.90;;;;;;;10.67;96.82;100765.34;5042078;28;20351;-41
2021/11/13 05:38:34;;;;;;;14.90;2.28;;;;;;;10.66;96.82;100766.34;5033834;28;20037;-40
2021/11/13 05:40:59;;;;;;;23.80;2.35;;;;;;;10.71;96.40;100768.47;5033585;28;20026;-40
2021/11/13 05:43:24;;;;;;;21.48;2.60;;;;;;;10.68;95.81;100767.00;5032233;28;20017;-40
2021/11/13 05:45:50;;;;;;;13.48;2.42;;;;;;;10.73;95.72;100774.53;5033525;28;20357;-39
2021/11/13 05:48:16;;;;;;;26.75;2.50;;;;;;;10.77;95.65;100776.66;5044711;28;20024;-40
2021/11/13 05:50:42;;;;;;;18.08;4.03;;;;;;;10.80;95.48;100775.47;5053512;28;20036;-41
2021/11/13 05:53:07;;;;;;;12.68;2.08;;;;;;;10.83;95.24;100779.66;5053616;28;20029;-39
2021/11/13 05:55:32;;;;;;;16.02;2.28;;;;;;;10.85;95.12;100782.97;5053415;28;20017;-40
2021/11/13 05:57:58;;;;;;;20.17;3.28;;;;;;;10.80;95.40;100782.72;5051818;28;20033;-39
2021/11/13 06:00:24;;;;;;;11.27;1.83;;;;;;;10.81;95.69;100784.38;5050591;28;20029;-39
2021/11/13 06:02:50;;;;;;;19.98;2.60;;;;;;;10.80;95.71;100790.78;5033361;28;20025;-39
2021/11/13 06:05:16;;;;;;;17.85;2.22;;;;;;;10.80;95.82;100786.22;5035369;28;20469;-39
2021/11/13 06:07:42;;;;;;;15.82;2.78;;;;;;;10.81;95.38;100785.19;5042419;28;20032;-40
2021/11/13 06:10:08;;;;;;;17.05;2.75;;;;;;;10.82;95.72;100796.81;5044255;28;20024;-40
2021/11/13 06:12:34;;;;;;;24.00;2.70;;;;;;;10.81;95.81;100797.84;5031604;28;20461;-39
2021/11/13 06:14:59;;;;;;;12.90;2.63;;;;;;;10.80;95.87;100794.31;5036373;28;20029;-39
2021/11/13 06:17:25;;;;;;;20.35;2.63;;;;;;;10.82;95.83;100796.81;5050426;28;20054;-39
2021/11/13 06:19:50;;;;;;;16.63;2.50;;;;;;;10.82;96.15;100800.34;5050707;28;20399;-40
2021/11/13 06:22:16;;;;;;;20.73;2.78;;;;;;;10.85;96.23;100802.66;5050736;28;20131;-39
2021/11/13 06:24:41;;;;;;;23.25;3.38;;;;;;;10.87;96.30;100811.38;5050832;28;20025;-39
2021/11/13 06:27:07;;;;;;;10.15;2.70;;;;;;;10.85;96.12;100807.19;5050875;28;20380;-40
2021/11/13 06:29:33;;;;;;;25.00;3.50;;;;;;;10.82;96.18;100818.34;5050735;28;20053;-39
2021/11/13 06:31:59;;;;;;;17.92;2.90;;;;;;;10.81;96.07;100816.69;5048770;28;20049;-40
2021/11/13 06:34:24;;;;;;;17.90;3.22;;;;;;;10.76;96.26;100822.59;5050083;28;20116;-40
2021/11/13 06:36:50;;;;;;;23.55;4.13;;;;;;;10.76;96.20;100823.44;5050397;28;20025;-40
2021/11/13 06:39:15;;;;;;;20.30;4.57;;;;;;;10.76;96.14;100828.00;5050501;28;20064;-40
2021/11/13 06:41:41;;;;;;;18.73;3.33;;;;;;;10.79;96.63;100838.38;5050218;28;20025;-40
2021/11/13 06:44:06;;;;;;;15.30;3.78;;;;;;;10.79;96.48;100829.47;5048969;28;20079;-40
2021/11/13 06:46:31;;;;;;;25.98;4.07;;;;;;;10.80;96.64;100840.06;5050367;28;20090;-43
2021/11/13 06:48:57;;;;;;;18.13;3.85;;;;;;;10.75;96.54;100837.94;5049546;28;20032;-42
2021/11/13 06:51:22;;;;;;;18.55;4.53;;;;;;;10.75;96.41;100837.09;5050184;28;20029;-41
2021/11/13 06:53:48;;;;;;;17.08;3.40;;;;;;;10.72;96.58;100843.69;5050295;28;20357;-40
2021/11/13 06:56:15;;;;;;;13.80;3.83;;;;;;;10.69;96.54;100846.75;5050208;28;20632;-42
2021/11/13 06:58:40;;;;;;;20.27;4.55;;;;;;;10.65;96.77;100847.28;5050148;28;20127;-40
2021/11/13 07:01:06;;;;;;;19.55;4.40;;;;;;;10.64;96.84;100851.84;5041691;28;20805;-40
2021/11/13 07:03:31;;;;;;;18.10;4.30;;;;;;;10.63;96.91;100857.38;5030401;28;20515;-40
2021/11/13 07:05:56;;;;;;;19.98;4.90;;;;;;;10.64;97.03;100861.78;5030308;28;20060;-39
2021/11/13 07:08:22;;;;;;;19.33;4.68;;;;;;;10.66;97.26;100875.84;5055804;28;20040;-38
2021/11/13 07:10:52;;;;;;;25.42;5.03;;;;;;;10.66;97.40;100879.38;5070191;28;20417;-39
2021/11/13 07:13:18;;;;;;;32.17;5.03;;;;;;;10.70;97.52;100877.19;5047721;28;20497;-38
2021/11/13 07:15:45;;;;;;;28.15;4.82;;;;;;;10.71;97.54;100884.22;5029877;28;20044;-38
2021/11/13 07:18:10;;;;;;;33.88;4.93;;;;;;;10.74;97.59;100887.41;5028423;28;20069;-39
2021/11/13 07:20:36;;;;;;;34.83;4.32;;;;;;;10.77;97.66;100897.81;5030233;28;20061;-39
2021/11/13 07:23:01;;;;;;;22.65;4.25;;;;;;;10.79;97.42;100894.91;5030135;28;20029;-39
2021/11/13 07:25:27;;;;;;;34.22;4.30;;;;;;;10.81;97.52;100905.53;5028782;28;20045;-39
2021/11/13 07:27:59;;;;;;;27.80;4.00;;;;;;;10.85;97.56;100906.81;5029721;28;20432;-38
2021/11/13 07:30:25;;;;;;;28.95;3.83;;;;;;;10.88;97.59;100911.84;5032736;28;20041;-39
2021/11/13 07:32:50;;;;;;;28.20;3.85;;;;;;;10.89;97.45;100908.13;5033857;28;20381;-39
2021/11/13 07:35:15;;;;;;;21.58;3.85;;;;;;;10.93;97.53;100914.84;5033956;28;20776;-39
2021/11/13 07:37:41;;;;;;;32.70;3.72;;;;;;;10.94;97.35;100921.88;5033617;28;20079;-40
2021/11/13 07:40:08;;;;;;;29.10;4.20;;;;;;;10.95;97.37;100928.94;5033709;28;20160;-39
2021/11/13 07:42:33;;;;;;;24.35;3.67;;;;;;;10.99;97.33;100931.09;5034508;28;20087;-39
2021/11/13 07:44:59;;;;;;;30.35;3.78;;;;;;;11.02;97.34;100927.19;5065458;28;20025;-39
2021/11/13 07:47:25;;;;;;;26.52;3.85;;;;;;;11.08;97.32;100933.69;5053733;28;20100;-42
2021/11/13 07:49:50;;;;;;;26.05;3.75;;;;;;;11.11;97.07;100939.59;5053114;28;20032;-42
2021/11/13 07:52:16;;;;;;;20.35;2.90;;;;;;;11.16;96.74;100939.88;5051551;28;20368;-42
2021/11/13 07:54:41;;;;;;;15.25;2.97;;;;;;;11.21;96.42;100937.44;5052935;28;20025;-41
2021/11/13 07:57:08;;;;;;;19.60;2.60;;;;;;;11.18;96.17;100936.97;5053173;28;20037;-40
2021/11/13 07:59:34;;;;;;;21.38;2.63;;;;;;;11.20;96.08;100941.16;5052935;28;20040;-41
2021/11/13 08:01:59;;;;;;;20.50;3.00;;;;;;;11.18;95.90;100945.06;5036634;28;20025;-40
2021/11/13 08:04:25;;;;;;;19.85;3.70;;;;;;;11.18;95.73;100945.88;5032180;28;20151;-39
2021/11/13 08:06:50;;;;;;;19.55;3.10;;;;;;;11.21;95.75;100953.59;5032735;28;20033;-39
2021/11/13 08:09:15;;;;;;;14.40;3.20;;;;;;;11.21;95.81;100956.28;5032443;28;20037;-39
2021/11/13 08:11:41;;;;;;;19.88;3.53;;;;;;;11.25;95.86;100950.56;5032979;28;20091;-39
2021/11/13 08:14:06;;;;;;;25.25;4.18;;;;;;;11.32;95.92;100954.19;5033284;28;20091;-40
2021/11/13 08:16:32;;;;;;;17.83;3.42;;;;;;;11.36;95.93;100953.63;5032698;28;20037;-39
2021/11/13 08:18:58;;;;;;;11.38;3.10;;;;;;;11.41;95.59;100961.16;5033535;28;20056;-39
2021/11/13 08:21:24;;;;;;;23.20;3.65;;;;;;;11.43;95.38;100970.75;5032990;28;20116;-39
2021/11/13 08:23:49;;;;;;;29.35;4.70;;;;;;;11.49;94.80;100962.94;5032590;28;20121;-39
2021/11/13 08:26:15;;;;;;;31.88;4.88;;;;;;;11.48;94.42;100974.72;5032683;28;20053;-38
2021/11/13 08:28:40;;;;;;;30.27;5.25;;;;;;;11.58;94.02;100975.28;5033270;28;20397;-39
2021/11/13 08:31:05;;;;;;;23.17;4.45;;;;;;;11.72;94.15;100974.47;5033113;28;20080;-39
2021/11/13 08:33:31;;;;;;;13.07;2.92;;;;;;;11.76;93.50;100981.16;5031084;28;20033;-39
2021/11/13 08:35:57;;;;;;;18.77;2.25;;;;;;;11.92;93.17;100980.16;5032284;28;20479;-39
2021/11/13 08:38:23;;;;;;;11.95;2.67;;;;;;;12.05;92.11;100985.72;5032150;28;20044;-39
2021/11/13 08:40:51;;;;;;;16.92;3.45;;;;;;;12.14;91.31;100988.31;5038274;28;20537;-39
2021/11/13 08:43:17;;;;;;;;;;;;;;;12.14;90.10;100991.88;5052422;28;20399;-40
2021/11/13 08:45:43;;;;;;;11.75;2.22;;;;;;;12.23;89.86;100985.31;5052045;28;20372;-39
2021/11/13 08:48:08;;;;;;;13.77;1.77;;;;;;;12.58;89.92;100990.06;5051550;28;20072;-40
2021/11/13 08:50:34;;;;;;;8.27;2.03;;;;;;;13.15;89.69;100997.28;5033895;28;20028;-39
2021/11/13 08:53:01;;;;;;;7.93;2.08;;;;;;;14.16;86.78;101011.25;5046878;28;20173;-39
2021/11/13 08:55:30;;;;;;;6.97;1.65;;;;;;;15.10;81.27;101010.47;5048495;28;20021;-39
2021/11/13 08:57:57;;;;;;;7.97;1.92;;;;;;;15.22;78.48;101009.84;5039414;28;20033;-41
2021/11/13 09:00:31;;;;;;;11.95;1.98;;;;;;;14.92;79.03;101011.09;5049364;28;20041;-40
2021/11/13 09:02:58;;;;;;;10.75;2.00;;;;;;;14.49;79.73;101013.25;5033720;28;20029;-39
2021/11/13 09:05:23;;;;;;;10.87;1.90;;;;;;;13.97;80.77;101012.00;5030506;28;20075;-39
2021/11/13 09:07:49;;;;;;;12.80;2.60;;;;;;;13.65;83.36;101019.72;5042759;28;20104;-39
2021/11/13 09:10:15;;;;;;;10.85;2.40;;;;;;;13.47;83.55;101016.69;5051300;28;20565;-40
2021/11/13 09:12:41;;;;;;;11.13;3.30;;;;;;;13.23;85.93;101018.75;5063263;28;20549;-40
2021/11/13 09:15:12;;;;;;;14.00;2.17;;;;;;;12.96;87.26;101021.22;5053306;28;20060;-40
2021/11/13 09:17:38;;;;;;;13.52;2.08;;;;;;;12.89;87.65;101023.00;5064657;28;20036;-40
2021/11/13 09:20:04;;;;;;;13.18;2.20;;;;;;;12.86;87.49;101027.97;5048403;28;20508;-40
2021/11/13 09:22:30;;;;;;;13.82;2.03;;;;;;;12.77;86.05;101031.81;5051454;28;20155;-40
2021/11/13 09:24:55;;;;;;;6.30;1.23;;;;;;;12.61;86.17;101028.34;5051556;28;20153;-41
2021/11/13 09:27:20;;;;;;;8.82;1.35;;;;;;;12.58;85.64;101027.88;5053049;28;20045;-41
2021/11/13 09:29:46;;;;;;;6.88;1.52;;;;;;;12.47;86.69;101021.94;5036761;28;20385;-40
2021/11/13 09:32:11;;;;;;;7.70;1.27;;;;;;;12.43;86.32;101026.06;5049217;28;20036;-39
2021/11/13 09:34:36;;;;;;;6.05;1.38;;;;;;;12.40;86.05;101036.38;5043586;28;20057;-40
2021/11/13 09:37:02;;;;;;;13.98;2.50;;;;;;;12.38;86.66;101039.28;5029844;28;20034;-39
2021/11/13 09:39:27;;;;;;;7.82;1.30;;;;;;;12.33;86.77;101036.31;5029935;28;20048;-40
2021/11/13 09:41:53;;;;;;;11.65;1.58;;;;;;;12.36;87.64;101041.31;5044972;28;20037;-39
2021/11/13 09:44:19;;;;;;;11.50;1.90;;;;;;;12.39;88.76;101040.94;5049736;28;20468;-41
2021/11/13 09:46:50;;;;;;;6.63;1.90;;;;;;;12.47;89.22;101045.41;5048234;28;20074;-40
2021/11/13 09:49:16;;;;;;;5.32;1.75;;;;;;;12.55;88.60;101044.44;5036451;28;20041;-40
2021/11/13 09:51:42;;;;;;;7.45;1.85;;;;;;;12.65;87.52;101050.38;5030180;28;20644;-40
2021/11/13 09:54:08;;;;;;;12.13;1.63;;;;;;;12.65;86.52;101053.91;5030420;28;20112;-40
2021/11/13 09:56:33;;;;;;;12.57;2.35;;;;;;;12.61;86.81;101057.19;5036316;28;20030;-40
2021/11/13 09:58:59;;;;;;;7.15;1.60;;;;;;;12.54;86.96;101059.81;5033502;28;20091;-40
2021/11/13 10:01:24;;;;;;;14.48;1.92;;;;;;;12.47;87.62;101062.41;5033908;28;20036;-40
2021/11/13 10:03:50;;;;;;;11.13;2.40;;;;;;;12.43;87.62;101066.53;5032629;28;20131;-40
2021/11/13 10:06:17;;;;;;;13.77;1.67;;;;;;;12.51;88.29;101077.22;5033467;28;20033;-40
2021/11/13 10:08:47;;;;;;;10.00;2.00;;;;;;;12.56;88.50;101078.50;5033200;28;20157;-40
2021/11/13 10:11:16;;;;;;;6.32;1.92;;;;;;;12.70;87.91;101073.09;5033442;28;20027;-40
2021/11/13 10:13:53;;;;;;;11.52;2.30;;;;;;;12.88;88.08;101067.25;5033486;28;20099;-40
2021/11/13 10:16:49;;;;;;;6.65;1.20;;;;;;;13.11;87.17;101072.50;5032352;28;20134;-40
2021/11/13 10:19:17;;;;;;;5.72;1.30;;;;;;;13.26;85.58;101075.13;5035423;28;20030;-40
2021/11/13 10:21:45;;;;;;;8.57;1.60;;;;;;;13.37;85.92;101076.47;5038213;28;20032;-41
2021/11/13 10:24:17;;;;;;;4.75;1.60;;;;;;;13.52;84.75;101076.41;5040770;28;20053;-40
2021/11/13 10:26:50;;;;;;;4.80;1.25;;;;;;;13.56;83.94;101083.09;5039963;28;20045;-40
2021/11/13 10:29:41;;;;;;;5.55;1.02;;;;;;;13.68;82.57;101070.72;5047864;28;20033;-40
2021/11/13 10:32:13;;;;;;;3.03;1.30;;;;;;;13.91;82.28;101084.00;5049429;28;20047;-40
2021/11/13 10:34:43;;;;;;;6.32;1.50;;;;;;;14.02;80.73;101086.13;5029093;28;20493;-40
2021/11/13 10:37:14;;;;;;;9.35;1.42;;;;;;;14.17;78.43;101082.50;5030649;28;20057;-40
2021/11/13 10:39:41;;;;;;;3.80;1.20;;;;;;;14.15;77.47;101084.56;5032203;28;20025;-41
2021/11/13 10:42:11;;;;;;;7.18;1.58;;;;;;;13.96;78.23;101091.53;5032189;28;20457;-41
2021/11/13 10:44:45;;;;;;;6.05;1.35;;;;;;;13.91;78.18;101088.56;5032151;28;20112;-40
2021/11/13 10:47:28;;;;;;;6.90;2.15;;;;;;;14.09;81.36;101091.59;5032077;28;20039;-40
2021/11/13 10:49:53;;;;;;;10.32;1.42;;;;;;;14.71;80.09;101087.94;5032009;28;20393;-40
2021/11/13 10:52:20;;;;;;;6.80;1.77;;;;;;;15.41;78.34;101084.97;5030817;28;20491;-40
2021/11/13 10:54:48;;;;;;;10.07;1.80;;;;;;;16.16;76.08;101093.69;5031979;28;20032;-40
2021/11/13 10:57:23;;;;;;;12.55;2.28;;;;;;;16.78;72.51;101099.56;5032128;28;20527;-40
2021/11/13 10:59:49;;;;;;;14.27;2.15;;;;;;;17.04;71.16;101100.47;5032235;28;20381;-41
2021/11/13 11:02:17;;;;;;;9.48;1.85;;;;;;;16.97;70.89;101105.09;5031670;28;20037;-40
2021/11/13 11:04:44;;;;;;;7.63;1.60;;;;;;;17.18;69.53;101099.31;5035355;28;20467;-40
2021/11/13 11:07:20;;;;;;;;;;;;;;;17.12;66.67;101108.38;5036583;28;20384;-41
2021/11/13 11:10:00;;;;;;;8.88;1.73;;;;;;;17.13;69.55;101107.31;5034703;28;20433;-40
2021/11/13 11:12:31;;;;;;;7.60;1.60;;;;;;;16.99;67.83;101108.44;5036029;28;20029;-40
2021/11/13 11:14:57;;;;;;;13.13;2.38;;;;;;;17.05;70.57;101110.28;5035870;28;20028;-40
2021/11/13 11:17:25;;;;;;;9.45;2.17;;;;;;;16.80;69.74;101110.22;5042538;28;20025;-39